createdAt,value
2023-05-06T00:04:54.517Z,11.1
2023-05-06T00:14:54.482Z,11
2023-05-06T00:24:54.445Z,10.7
2023-05-06T00:34:54.416Z,10.3
2023-05-06T00:44:54.400Z,10.5
2023-05-06T00:54:54.358Z,10.4
2023-05-06T01:04:54.345Z,10.3
2023-05-06T01:14:54.300Z,10.1
2023-05-06T01:24:54.278Z,10
2023-05-06T01:34:54.255Z,9.8
2023-05-06T01:44:54.221Z,9.7
2023-05-06T01:54:54.193Z,9.4
2023-05-06T02:04:54.166Z,9.3
2023-05-06T02:14:54.380Z,9.2
2023-05-06T02:24:54.101Z,8.8
2023-05-06T02:34:54.087Z,8.8
2023-05-06T02:44:54.029Z,8.7
2023-05-06T02:54:54.010Z,8.5
2023-05-06T03:04:54.005Z,8.3
2023-05-06T03:14:53.954Z,8.3
2023-05-06T03:24:53.926Z,8.1
2023-05-06T03:34:53.921Z,8.1
2023-05-06T03:44:53.869Z,8
2023-05-06T03:54:53.844Z,7.9
2023-05-06T04:04:53.805Z,8
2023-05-06T04:14:53.784Z,7.9
2023-05-06T04:24:53.754Z,7.8
2023-05-06T04:34:53.721Z,8
2023-05-06T04:44:53.719Z,8.2
2023-05-06T04:54:53.675Z,8.3
2023-05-06T05:04:53.648Z,8.7
2023-05-06T05:14:53.627Z,9.1
2023-05-06T05:24:53.591Z,9.4
2023-05-06T05:34:53.565Z,9.7
2023-05-06T05:44:53.536Z,10
2023-05-06T05:54:53.485Z,10.4
2023-05-06T06:04:53.478Z,10.8
2023-05-06T06:14:53.458Z,11.1
2023-05-06T06:24:53.416Z,11.5
2023-05-06T06:34:53.366Z,11.8
2023-05-06T06:44:53.347Z,12
2023-05-06T06:54:53.304Z,12.4
2023-05-06T07:04:53.287Z,12.6
2023-05-06T07:14:53.244Z,13.1
2023-05-06T07:24:53.241Z,13.6
2023-05-06T07:34:53.200Z,14.1
2023-05-06T07:44:53.157Z,14.4
2023-05-06T07:54:53.137Z,14.7
2023-05-06T08:04:53.130Z,15.2
2023-05-06T08:14:53.079Z,15.6
2023-05-06T08:24:53.042Z,16
2023-05-06T08:34:53.000Z,16.4
2023-05-06T08:44:52.967Z,16.6
2023-05-06T08:54:52.928Z,16.8
2023-05-06T09:04:52.920Z,16.9
2023-05-06T09:14:52.879Z,17.1
2023-05-06T09:24:52.835Z,17.7
2023-05-06T09:34:52.808Z,18.2
2023-05-06T09:44:52.768Z,18.4
2023-05-06T09:54:52.728Z,18.4
2023-05-06T10:04:52.716Z,18.6
2023-05-06T10:14:52.683Z,18.7
2023-05-06T10:24:52.641Z,19
2023-05-06T10:34:52.609Z,18.9
2023-05-06T10:44:52.573Z,19.4
2023-05-06T10:54:52.549Z,19.8
2023-05-06T11:04:52.526Z,19.4
2023-05-06T11:14:52.473Z,19.8
2023-05-06T11:24:52.432Z,20.6
2023-05-06T11:34:52.393Z,20.9
2023-05-06T11:44:52.377Z,20
2023-05-06T11:54:52.332Z,20.4
2023-05-06T12:04:52.292Z,20.7
2023-05-06T12:14:52.254Z,21
2023-05-06T12:24:52.229Z,21.4
2023-05-06T12:34:52.195Z,21.8
2023-05-06T12:44:52.191Z,21.9
2023-05-06T12:54:52.128Z,21.8
2023-05-06T13:04:52.133Z,21.6
2023-05-06T13:14:52.056Z,21.3
2023-05-06T13:24:52.042Z,21.8
2023-05-06T13:34:51.977Z,21.8
2023-05-06T13:44:51.958Z,21.7
2023-05-06T13:54:51.932Z,21.6
2023-05-06T14:04:51.897Z,21.2
2023-05-06T14:14:51.844Z,20.8
2023-05-06T14:24:51.826Z,20.1
2023-05-06T14:34:51.792Z,18.1
2023-05-06T14:44:51.755Z,17
2023-05-06T14:54:51.713Z,16.5
2023-05-06T15:04:51.684Z,16.3
2023-05-06T15:14:51.667Z,16.3
2023-05-06T15:24:51.616Z,16.3
2023-05-06T15:34:51.737Z,16.2
2023-05-06T15:44:51.565Z,16
2023-05-06T15:54:51.530Z,15.9
2023-05-06T16:04:51.476Z,15.8
2023-05-06T16:14:51.459Z,15.7
2023-05-06T16:24:51.432Z,15.9
2023-05-06T16:34:51.409Z,15.9
2023-05-06T16:44:51.377Z,15.8
2023-05-06T16:54:51.371Z,16.1
2023-05-06T17:04:51.289Z,16.2
2023-05-06T17:14:51.258Z,16.2
2023-05-06T17:24:51.229Z,16.2
2023-05-06T17:34:51.363Z,16.1
2023-05-06T17:44:51.339Z,15.9
2023-05-06T17:54:51.113Z,15.9
2023-05-06T18:04:51.308Z,16
2023-05-06T18:14:51.272Z,15.9
2023-05-06T18:24:51.179Z,15.6
2023-05-06T18:34:51.144Z,15.5
2023-05-06T18:44:50.965Z,15.4
2023-05-06T18:54:51.133Z,15.5
2023-05-06T19:04:51.065Z,15.3
2023-05-06T19:14:51.059Z,15
2023-05-06T19:24:51.088Z,14.8
2023-05-06T19:34:50.865Z,14.7
2023-05-06T19:44:50.954Z,14.5
2023-05-06T19:54:50.915Z,14.4
2023-05-06T20:04:50.886Z,14.4
2023-05-06T20:14:50.677Z,14.3
2023-05-06T20:24:50.846Z,14.2
2023-05-06T20:34:50.765Z,14.2
2023-05-06T20:44:50.718Z,14.2
2023-05-06T20:54:50.537Z,14.1
2023-05-06T21:04:50.632Z,14
2023-05-06T21:14:50.646Z,13.9
2023-05-06T21:24:50.721Z,13.8
2023-05-06T21:34:50.575Z,13.7
2023-05-06T21:44:50.636Z,13.7
2023-05-06T21:54:50.544Z,13.6
2023-05-06T22:04:50.469Z,13.3
2023-05-06T22:14:50.504Z,13.2
2023-05-06T22:24:50.452Z,13
2023-05-06T22:34:50.477Z,12.9
2023-05-06T22:44:50.404Z,12.9
2023-05-06T22:54:50.349Z,12.9
2023-05-06T23:04:50.314Z,12.9
2023-05-06T23:14:50.334Z,13.1
2023-05-06T23:24:50.071Z,13.1
2023-05-06T23:34:50.049Z,13.2
2023-05-06T23:44:50.026Z,13.2
2023-05-06T23:54:49.993Z,13
